createdAt,value
2022-10-23T08:22:21.415Z,7.05
2022-10-23T08:24:48.587Z,6.38
2022-10-23T08:27:15.312Z,5.88
2022-10-23T08:29:43.274Z,4.47
2022-10-23T08:32:10.081Z,4.03
2022-10-23T08:34:42.109Z,5.32
2022-10-23T08:37:08.854Z,5.00
2022-10-23T08:39:36.316Z,5.60
2022-10-23T08:42:03.186Z,5.28
2022-10-23T08:44:39.078Z,6.85
2022-10-23T08:47:14.357Z,6.65
2022-10-23T08:49:50.894Z,5.80
2022-10-23T08:52:31.870Z,6.40
2022-10-23T08:55:04.192Z,7.80
2022-10-23T08:57:38.778Z,5.80
2022-10-23T09:00:09.118Z,6.00
2022-10-23T09:02:45.545Z,6.18
2022-10-23T09:05:15.843Z,6.43
2022-10-23T09:08:00.662Z,6.90
2022-10-23T09:10:55.624Z,7.15
2022-10-23T09:13:34.326Z,7.07
2022-10-23T09:16:42.205Z,7.68
2022-10-23T09:19:15.429Z,11.38
2022-10-23T09:21:42.417Z,9.60
2022-10-23T09:24:14.497Z,10.02
2022-10-23T09:26:42.768Z,9.93
2022-10-23T09:29:29.691Z,8.77
2022-10-23T09:31:58.374Z,9.43
2022-10-23T09:34:26.963Z,9.63
2022-10-23T09:36:58.899Z,9.73
2022-10-23T09:39:32.521Z,10.85
2022-10-23T09:41:59.989Z,11.82
2022-10-23T09:44:28.569Z,11.73
2022-10-23T09:47:00.370Z,12.50
2022-10-23T09:49:31.237Z,13.98
2022-10-23T09:52:02.290Z,14.85
2022-10-23T09:54:59.026Z,16.05
2022-10-23T09:57:41.509Z,17.05
2022-10-23T10:00:16.318Z,17.42
2022-10-23T10:02:44.400Z,19.33
2022-10-23T10:05:31.252Z,18.50
2022-10-23T10:08:10.790Z,18.10
2022-10-23T10:10:44.785Z,18.02
2022-10-23T10:13:33.431Z,18.10
2022-10-23T10:16:11.572Z,17.55
2022-10-23T10:18:40.786Z,17.63
2022-10-23T10:21:28.719Z,18.63
2022-10-23T10:23:58.252Z,19.85
2022-10-23T10:26:42.976Z,21.00
2022-10-23T10:29:30.044Z,21.23
2022-10-23T10:32:15.381Z,20.10
2022-10-23T10:34:42.418Z,20.42
2022-10-23T10:37:24.172Z,21.80
2022-10-23T10:40:14.375Z,22.08
2022-10-23T10:42:43.934Z,23.67
2022-10-23T10:45:13.753Z,24.70
2022-10-23T10:47:43.903Z,21.95
2022-10-23T10:50:25.851Z,23.17
2022-10-23T10:53:08.665Z,22.25
2022-10-23T10:55:38.963Z,23.70
2022-10-23T10:58:28.678Z,24.13
2022-10-23T11:00:57.112Z,22.88
2022-10-23T11:04:11.601Z,23.10
2022-10-23T11:06:38.649Z,21.60
2022-10-23T11:09:20.404Z,21.58
2022-10-23T11:11:48.670Z,22.52
2022-10-23T11:14:23.121Z,20.13
2022-10-23T11:17:12.372Z,18.20
2022-10-23T11:20:03.523Z,15.57
2022-10-23T11:22:36.466Z,15.48
2022-10-23T11:25:41.001Z,13.45
2022-10-23T11:28:13.286Z,9.70
2022-10-23T11:31:12.149Z,7.50
2022-10-23T11:33:57.969Z,8.60
2022-10-23T11:36:43.544Z,7.75
2022-10-23T11:39:22.612Z,9.10
2022-10-23T11:42:00.433Z,7.40
2022-10-23T11:44:48.481Z,7.10
2022-10-23T11:47:39.747Z,7.70
2022-10-23T11:50:07.229Z,6.38
2022-10-23T11:53:12.564Z,6.43
2022-10-23T11:55:39.274Z,11.48
2022-10-23T11:58:23.573Z,9.27
2022-10-23T12:01:15.479Z,6.88
2022-10-23T12:03:49.698Z,7.07
2022-10-23T12:06:26.407Z,9.55
2022-10-23T12:08:55.236Z,7.93
2022-10-23T12:11:39.419Z,7.25
2022-10-23T12:14:07.759Z,10.63
2022-10-23T12:16:35.756Z,7.30
2022-10-23T12:19:11.237Z,7.35
2022-10-23T12:21:38.002Z,7.82
2022-10-23T12:24:29.342Z,8.30
2022-10-23T12:27:06.485Z,10.35
2022-10-23T12:29:45.142Z,7.90
2022-10-23T12:32:27.069Z,8.05
2022-10-23T12:35:05.790Z,7.75
2022-10-23T12:37:41.439Z,10.43
2022-10-23T12:40:09.248Z,10.50
2022-10-23T12:42:36.046Z,7.80
2022-10-23T12:45:19.317Z,15.68
2022-10-23T12:50:30.248Z,11.38
2022-10-23T12:53:04.808Z,11.30
2022-10-23T12:55:53.047Z,10.88
2022-10-23T12:58:33.474Z,10.63
2022-10-23T13:01:02.630Z,10.93
2022-10-23T13:03:30.288Z,11.98
2022-10-23T13:05:58.869Z,10.55
2022-10-23T13:08:29.580Z,16.45
2022-10-23T13:10:56.312Z,16.05
2022-10-23T13:13:23.326Z,13.02
2022-10-23T13:15:50.211Z,12.50
2022-10-23T13:18:17.411Z,12.20
2022-10-23T13:20:58.520Z,13.85
2022-10-23T13:23:32.009Z,16.35
2022-10-23T13:26:02.785Z,15.25
2022-10-23T13:28:45.641Z,17.00
2022-10-23T13:31:16.538Z,15.77
2022-10-23T13:33:48.378Z,15.45
2022-10-23T13:36:15.341Z,14.93
2022-10-23T13:38:44.088Z,14.27
2022-10-23T13:41:18.301Z,12.93
2022-10-23T13:43:46.616Z,12.55
2022-10-23T13:46:25.800Z,13.57
2022-10-23T13:48:53.098Z,14.63
2022-10-23T13:51:21.193Z,14.13
2022-10-23T13:53:48.346Z,13.98
2022-10-23T13:56:16.846Z,13.18
2022-10-23T13:58:43.919Z,15.80
2022-10-23T14:01:24.991Z,14.55
2022-10-23T14:03:52.856Z,12.55
2022-10-23T14:06:20.139Z,12.02
2022-10-23T14:08:47.295Z,14.15
2022-10-23T14:13:47.978Z,11.93
2022-10-23T14:16:18.374Z,12.07
2022-10-23T14:18:47.968Z,12.10
2022-10-23T14:21:16.422Z,12.18
2022-10-23T14:23:43.330Z,11.32
2022-10-23T14:26:11.851Z,11.27
2022-10-23T14:28:39.165Z,12.38
2022-10-23T14:31:14.128Z,12.50
2022-10-23T14:33:41.751Z,14.07
2022-10-23T14:36:09.200Z,15.07
2022-10-23T14:38:36.619Z,15.13
2022-10-23T14:41:03.791Z,16.08
2022-10-23T14:43:30.690Z,16.73
2022-10-23T14:45:57.554Z,18.17
2022-10-23T14:48:24.378Z,19.45
2022-10-23T14:50:51.226Z,17.83
2022-10-23T14:53:18.133Z,18.25
2022-10-23T14:55:56.328Z,19.52
2022-10-23T14:58:37.833Z,20.08
2022-10-23T15:01:20.096Z,21.02
2022-10-23T15:03:59.579Z,22.00
2022-10-23T15:06:38.218Z,22.27
2022-10-23T15:09:19.935Z,22.50
2022-10-23T15:12:00.036Z,24.77
2022-10-23T15:14:41.025Z,24.98
2022-10-23T15:17:26.137Z,25.40
2022-10-23T15:20:04.958Z,28.10
2022-10-23T15:22:52.679Z,28.33
2022-10-23T15:25:34.846Z,28.63
2022-10-23T15:28:12.882Z,28.33
2022-10-23T15:30:49.151Z,31.33
2022-10-23T15:33:29.735Z,30.45
2022-10-23T15:36:15.295Z,30.48
2022-10-23T15:38:56.108Z,32.30
2022-10-23T15:41:40.704Z,30.65
2022-10-23T15:44:33.963Z,32.25
2022-10-23T15:47:09.945Z,33.40
2022-10-23T15:49:52.762Z,35.10
2022-10-23T15:52:33.232Z,35.30
2022-10-23T15:55:17.887Z,37.40
2022-10-23T15:58:08.852Z,36.13
2022-10-23T16:00:44.931Z,38.08
2022-10-23T16:03:28.005Z,38.30
2022-10-23T16:06:10.987Z,35.67
2022-10-23T16:11:37.678Z,35.53
2022-10-23T16:14:20.940Z,33.80
2022-10-23T16:17:02.878Z,36.00
2022-10-23T16:19:47.622Z,35.60
2022-10-23T16:22:16.148Z,35.50
2022-10-23T16:24:43.010Z,36.47
2022-10-23T16:27:09.764Z,35.75
2022-10-23T16:29:36.535Z,35.17
2022-10-23T16:32:03.365Z,35.45
2022-10-23T16:34:30.090Z,36.65
2022-10-23T16:36:56.817Z,34.50
2022-10-23T16:39:23.539Z,36.33
2022-10-23T16:41:50.277Z,35.03
2022-10-23T16:44:17.213Z,34.30
2022-10-23T16:46:43.932Z,37.47
2022-10-23T16:49:10.678Z,37.60
2022-10-23T16:51:37.490Z,37.80
2022-10-23T16:54:04.332Z,36.40
2022-10-23T16:56:31.386Z,38.30
2022-10-23T17:01:31.117Z,37.30
2022-10-23T17:03:58.023Z,40.72
2022-10-23T17:06:27.094Z,40.67
2022-10-23T17:08:54.742Z,40.97
2022-10-23T17:11:32.371Z,39.20
2022-10-23T17:14:05.742Z,41.70
2022-10-23T17:16:59.166Z,40.55
2022-10-23T17:19:46.846Z,44.53
2022-10-23T17:22:25.056Z,40.30
2022-10-23T17:25:04.044Z,41.20
2022-10-23T17:27:46.380Z,42.03
2022-10-23T17:30:22.483Z,40.55
2022-10-23T17:33:08.134Z,41.00
2022-10-23T17:36:07.111Z,44.45
2022-10-23T17:39:01.305Z,46.22
2022-10-23T17:41:58.120Z,34.67
2022-10-23T17:44:40.437Z,35.58
2022-10-23T17:47:41.151Z,35.78
2022-10-23T17:50:38.087Z,33.92
2022-10-23T17:53:39.817Z,35.95
2022-10-23T17:56:26.970Z,38.40
2022-10-23T17:59:10.045Z,36.08
2022-10-23T18:01:55.166Z,32.42
2022-10-23T18:04:30.112Z,32.53
2022-10-23T18:07:11.159Z,34.58
2022-10-23T18:09:50.573Z,33.45
2022-10-23T18:12:34.131Z,37.58
2022-10-23T18:15:18.440Z,35.65
2022-10-23T18:18:11.700Z,40.58
2022-10-23T18:21:10.529Z,38.33
2022-10-23T18:23:52.186Z,35.05
2022-10-23T18:26:37.723Z,35.83
2022-10-23T18:29:07.484Z,35.75
2022-10-23T18:31:46.020Z,34.55
2022-10-23T18:34:27.962Z,34.72
2022-10-23T18:37:09.595Z,34.22
2022-10-23T18:39:58.202Z,36.08
2022-10-23T18:42:34.130Z,34.33
2022-10-23T18:45:21.667Z,33.17
2022-10-23T18:48:15.586Z,35.35
2022-10-23T18:50:51.285Z,31.77
2022-10-23T18:53:46.987Z,32.72
2022-10-23T18:56:30.236Z,31.63
2022-10-23T18:59:06.985Z,32.60
2022-10-23T19:01:47.119Z,32.53
2022-10-23T19:04:26.041Z,29.83
2022-10-23T19:07:30.338Z,29.30
2022-10-23T19:10:19.023Z,29.77
2022-10-23T19:12:58.158Z,29.88
2022-10-23T19:15:39.867Z,31.10
2022-10-23T19:18:18.971Z,29.52
2022-10-23T19:21:01.134Z,30.33
2022-10-23T19:23:46.013Z,31.75
2022-10-23T19:26:25.202Z,28.40
2022-10-23T19:29:03.883Z,29.17
2022-10-23T19:31:53.979Z,29.98
2022-10-23T19:34:33.129Z,28.23
2022-10-23T19:37:24.100Z,28.48
2022-10-23T19:40:03.167Z,27.48
2022-10-23T19:42:43.720Z,27.92
2022-10-23T19:48:18.888Z,27.85
2022-10-23T19:51:03.153Z,27.10
2022-10-23T19:53:54.257Z,25.35
2022-10-23T19:56:33.258Z,25.42
2022-10-23T19:59:25.084Z,25.90
2022-10-23T20:02:17.323Z,26.10
2022-10-23T20:05:03.117Z,25.48
2022-10-23T20:07:39.196Z,26.77
2022-10-23T20:10:20.191Z,25.45
2022-10-23T20:12:57.098Z,25.48
2022-10-23T20:15:45.794Z,26.55
2022-10-23T20:18:38.232Z,24.10
2022-10-23T20:21:17.247Z,27.75
2022-10-23T20:23:58.438Z,26.58
2022-10-23T20:26:32.986Z,26.38
2022-10-23T20:29:14.683Z,27.90
2022-10-23T20:31:54.202Z,25.85
2022-10-23T20:34:29.128Z,27.58
2022-10-23T20:37:13.640Z,28.85
2022-10-23T20:40:01.098Z,29.00
2022-10-23T20:42:42.239Z,27.75
2022-10-23T20:45:23.754Z,29.67
2022-10-23T20:48:14.684Z,29.30
2022-10-23T20:50:53.242Z,29.08
2022-10-23T20:53:33.174Z,29.45
2022-10-23T20:56:36.074Z,30.58
2022-10-23T20:59:37.958Z,28.10
2022-10-23T21:02:16.878Z,28.27
2022-10-23T21:05:05.370Z,28.85
2022-10-23T21:07:43.977Z,28.10
2022-10-23T21:10:28.414Z,28.10
2022-10-23T21:13:12.339Z,28.67
2022-10-23T21:15:50.966Z,30.02
2022-10-23T21:18:45.405Z,29.45
2022-10-23T21:21:37.056Z,28.20
2022-10-23T21:24:23.295Z,25.80
2022-10-23T21:27:06.141Z,25.67
2022-10-23T21:29:48.152Z,26.70
2022-10-23T21:32:30.860Z,27.77
2022-10-23T21:35:14.040Z,27.48
2022-10-23T21:37:56.086Z,24.48
2022-10-23T21:40:39.209Z,25.85
2022-10-23T21:43:22.057Z,22.27
2022-10-23T21:46:04.200Z,28.58
2022-10-23T21:48:46.484Z,24.42
2022-10-23T21:51:34.559Z,23.10
2022-10-23T21:54:17.938Z,23.60
